Time;durP1;ratioP1;P1;durP2;ratioP2;P2;SDS_P1;SDS_P2;PMS_P1;PMS_P2;Temp;Humidity;BMP_temperature;BMP_pressure;BME280_temperature;BME280_humidity;BME280_pressure;Samples;Min_cycle;Max_cycle;Signal;HPM_P1;HPM_P2
2023/07/09 00:02:10;;;;;;;8.73;4.50;;;;;;;;;;4981835;28;20418;-61
2023/07/09 00:04:38;;;;;;;8.30;5.07;;;;;;;;;;4980154;28;20428;-60
2023/07/09 00:07:06;;;;;;;7.88;4.78;;;;;;;;;;4979590;28;20424;-60
2023/07/09 00:09:33;;;;;;;6.40;4.68;;;;;;;;;;4975546;28;20429;-63
2023/07/09 00:12:00;;;;;;;9.10;5.00;;;;;;;;;;4979591;28;20423;-63
2023/07/09 00:14:27;;;;;;;7.57;4.93;;;;;;;;;;4981802;28;20418;-63
2023/07/09 00:16:56;;;;;;;7.57;4.80;;;;;;;;;;4980239;28;20428;-63
2023/07/09 00:19:24;;;;;;;6.95;4.55;;;;;;;;;;4977606;28;20432;-62
2023/07/09 00:21:52;;;;;;;6.22;4.63;;;;;;;;;;4980784;28;20429;-63
2023/07/09 00:24:20;;;;;;;7.68;4.72;;;;;;;;;;4984267;28;20418;-63
2023/07/09 00:26:48;;;;;;;7.10;4.68;;;;;;;;;;4983120;28;20410;-62
2023/07/09 00:29:15;;;;;;;8.32;4.38;;;;;;;;;;4980777;28;20422;-60
2023/07/09 00:31:42;;;;;;;7.50;4.85;;;;;;;;;;4979113;28;20475;-61
2023/07/09 00:34:12;;;;;;;5.97;4.37;;;;;;;;;;4980041;28;20422;-60
2023/07/09 00:36:39;;;;;;;7.45;4.97;;;;;;;;;;4981510;28;20437;-61
2023/07/09 00:39:07;;;;;;;6.05;4.47;;;;;;;;;;4979031;28;20978;-61
2023/07/09 00:41:35;;;;;;;10.25;4.95;;;;;;;;;;4984761;28;20749;-61
2023/07/09 00:44:19;;;;;;;7.80;4.70;;;;;;;;;;4983807;28;20432;-60
2023/07/09 00:47:05;;;;;;;6.63;4.72;;;;;;;;;;4983247;28;20412;-62
2023/07/09 00:49:35;;;;;;;8.43;4.90;;;;;;;;;;4983400;28;20428;-62
2023/07/09 00:52:03;;;;;;;8.73;4.78;;;;;;;;;;4982055;28;20475;-61
2023/07/09 00:54:32;;;;;;;8.20;4.82;;;;;;;;;;4985678;28;20907;-61
2023/07/09 00:57:00;;;;;;;7.95;4.68;;;;;;;;;;4985948;28;20493;-61
2023/07/09 00:59:29;;;;;;;7.35;4.70;;;;;;;;;;4982864;28;20511;-61
2023/07/09 01:01:57;;;;;;;6.72;4.70;;;;;;;;;;4982004;28;20428;-62
2023/07/09 01:04:24;;;;;;;7.55;5.00;;;;;;;;;;4984219;28;20812;-61
2023/07/09 01:06:54;;;;;;;9.18;4.80;;;;;;;;;;4982111;28;20428;-60
2023/07/09 01:09:22;;;;;;;7.80;4.43;;;;;;;;;;4973753;28;20420;-60
2023/07/09 01:11:49;;;;;;;8.18;4.90;;;;;;;;;;4972938;28;20886;-61
2023/07/09 01:14:19;;;;;;;8.20;5.00;;;;;;;;;;4973336;28;20825;-61
2023/07/09 01:16:48;;;;;;;7.75;4.93;;;;;;;;;;4973320;28;20444;-61
2023/07/09 01:19:16;;;;;;;7.60;4.85;;;;;;;;;;4973261;28;20877;-60
2023/07/09 01:21:44;;;;;;;9.40;4.97;;;;;;;;;;4986028;28;20581;-61
2023/07/09 01:24:13;;;;;;;8.02;4.75;;;;;;;;;;4985397;28;20483;-59
2023/07/09 01:26:43;;;;;;;7.50;5.03;;;;;;;;;;4988080;28;20852;-61
2023/07/09 01:29:12;;;;;;;8.07;5.00;;;;;;;;;;4981332;28;20559;-61
2023/07/09 01:31:40;;;;;;;6.68;4.70;;;;;;;;;;4983511;28;20510;-61
2023/07/09 01:34:07;;;;;;;7.20;4.93;;;;;;;;;;4989756;28;20860;-60
2023/07/09 01:36:34;;;;;;;10.10;5.10;;;;;;;;;;4984808;28;20880;-60
2023/07/09 01:39:03;;;;;;;8.17;5.00;;;;;;;;;;4986885;28;20516;-59
2023/07/09 01:41:34;;;;;;;6.77;4.80;;;;;;;;;;4983950;28;20843;-61
2023/07/09 01:44:01;;;;;;;8.82;5.63;;;;;;;;;;4980469;28;20509;-61
2023/07/09 01:46:28;;;;;;;8.40;4.82;;;;;;;;;;4987340;28;20481;-61
2023/07/09 01:48:55;;;;;;;8.27;5.03;;;;;;;;;;4984591;28;20913;-60
2023/07/09 01:51:22;;;;;;;7.60;5.10;;;;;;;;;;4978507;28;20428;-60
2023/07/09 01:53:49;;;;;;;7.68;5.30;;;;;;;;;;4984720;28;20469;-59
2023/07/09 01:56:18;;;;;;;7.32;5.00;;;;;;;;;;4989129;28;20431;-60
2023/07/09 01:58:44;;;;;;;9.02;5.55;;;;;;;;;;4972877;28;20444;-61
2023/07/09 02:01:12;;;;;;;9.20;5.13;;;;;;;;;;4972082;28;21002;-60
2023/07/09 02:03:39;;;;;;;7.00;4.97;;;;;;;;;;4972472;28;20420;-60
2023/07/09 02:06:09;;;;;;;8.93;5.30;;;;;;;;;;4980556;28;20432;-60
2023/07/09 02:08:36;;;;;;;7.68;5.07;;;;;;;;;;4980833;28;20920;-60
2023/07/09 02:11:03;;;;;;;7.07;5.13;;;;;;;;;;4982261;28;20919;-60
2023/07/09 02:13:32;;;;;;;8.55;5.20;;;;;;;;;;4980084;28;20504;-60
2023/07/09 02:15:59;;;;;;;10.38;5.43;;;;;;;;;;4981257;28;20416;-58
2023/07/09 02:18:25;;;;;;;8.13;5.00;;;;;;;;;;4981243;28;20463;-61
2023/07/09 02:20:52;;;;;;;6.65;5.32;;;;;;;;;;4980029;28;20785;-58
2023/07/09 02:23:20;;;;;;;9.35;5.22;;;;;;;;;;4981809;28;20534;-60
2023/07/09 02:25:47;;;;;;;7.18;4.95;;;;;;;;;;4988709;28;20426;-59
2023/07/09 02:28:14;;;;;;;8.32;4.95;;;;;;;;;;4984205;28;20454;-61
2023/07/09 02:30:42;;;;;;;7.15;4.90;;;;;;;;;;4982288;28;20903;-60
2023/07/09 02:33:09;;;;;;;7.82;5.30;;;;;;;;;;4982638;28;20433;-61
2023/07/09 02:35:36;;;;;;;9.48;5.18;;;;;;;;;;4981393;28;20473;-61
2023/07/09 02:38:03;;;;;;;8.70;5.32;;;;;;;;;;4982975;28;20822;-59
2023/07/09 02:40:31;;;;;;;9.70;5.45;;;;;;;;;;4980898;28;20537;-60
2023/07/09 02:42:58;;;;;;;7.45;5.20;;;;;;;;;;4977659;28;20428;-61
2023/07/09 02:45:25;;;;;;;8.18;5.15;;;;;;;;;;4971724;28;20423;-60
2023/07/09 02:47:53;;;;;;;11.40;5.60;;;;;;;;;;4975808;28;20486;-59
2023/07/09 02:50:21;;;;;;;7.65;5.45;;;;;;;;;;4979120;28;20428;-60
2023/07/09 02:52:48;;;;;;;8.38;5.30;;;;;;;;;;4981728;28;20477;-58
2023/07/09 02:55:15;;;;;;;10.02;5.50;;;;;;;;;;4986824;28;20482;-61
2023/07/09 02:57:42;;;;;;;8.85;5.32;;;;;;;;;;4982656;28;20831;-58
2023/07/09 03:00:09;;;;;;;8.77;5.72;;;;;;;;;;4981788;28;20415;-57
2023/07/09 03:02:36;;;;;;;7.72;5.60;;;;;;;;;;4981076;28;20423;-60
2023/07/09 03:05:06;;;;;;;9.27;5.57;;;;;;;;;;4981294;28;20543;-60
2023/07/09 03:07:33;;;;;;;8.32;5.30;;;;;;;;;;4978974;28;20511;-58
2023/07/09 03:10:00;;;;;;;8.13;5.90;;;;;;;;;;4983266;28;20924;-57
2023/07/09 03:12:27;;;;;;;10.77;6.10;;;;;;;;;;4979583;28;20420;-60
2023/07/09 03:14:53;;;;;;;7.30;5.40;;;;;;;;;;4980199;28;20412;-60
2023/07/09 03:17:20;;;;;;;10.13;5.85;;;;;;;;;;4980222;28;20762;-61
2023/07/09 03:19:47;;;;;;;8.43;5.60;;;;;;;;;;4982368;28;20419;-56
2023/07/09 03:22:16;;;;;;;9.25;5.68;;;;;;;;;;4984491;28;20492;-56
2023/07/09 03:24:43;;;;;;;10.80;5.80;;;;;;;;;;4987021;28;20984;-61
2023/07/09 03:27:10;;;;;;;10.10;5.68;;;;;;;;;;4984385;28;20423;-60
2023/07/09 03:29:37;;;;;;;7.65;5.40;;;;;;;;;;4979832;28;20981;-58
2023/07/09 03:32:04;;;;;;;9.18;5.93;;;;;;;;;;4982552;28;20529;-60
2023/07/09 03:34:31;;;;;;;9.88;5.68;;;;;;;;;;4978538;28;20558;-60
2023/07/09 03:36:58;;;;;;;9.70;6.10;;;;;;;;;;4982704;28;20546;-61
2023/07/09 03:39:27;;;;;;;9.63;6.15;;;;;;;;;;4984349;28;20915;-61
2023/07/09 03:41:54;;;;;;;12.13;6.07;;;;;;;;;;4979601;28;20424;-61
2023/07/09 03:44:21;;;;;;;9.47;5.83;;;;;;;;;;4981405;28;20476;-61
2023/07/09 03:46:48;;;;;;;8.82;5.38;;;;;;;;;;4981236;28;20791;-61
2023/07/09 03:49:15;;;;;;;7.97;5.85;;;;;;;;;;4979735;28;20416;-61
2023/07/09 03:51:42;;;;;;;7.70;5.28;;;;;;;;;;4980715;28;20476;-61
2023/07/09 03:54:09;;;;;;;9.80;5.43;;;;;;;;;;4981956;28;20447;-61
2023/07/09 03:56:37;;;;;;;7.75;5.45;;;;;;;;;;4985593;28;20760;-61
2023/07/09 03:59:04;;;;;;;8.18;5.75;;;;;;;;;;4985765;28;21004;-61
2023/07/09 04:01:31;;;;;;;7.38;5.40;;;;;;;;;;4981375;28;20468;-61
2023/07/09 04:03:58;;;;;;;7.80;5.72;;;;;;;;;;4980861;28;20420;-60
2023/07/09 04:06:25;;;;;;;7.72;5.88;;;;;;;;;;4979363;28;20919;-60
2023/07/09 04:08:52;;;;;;;7.20;5.50;;;;;;;;;;4982938;28;20412;-60
2023/07/09 04:11:19;;;;;;;9.93;5.78;;;;;;;;;;4983103;28;20539;-60
2023/07/09 04:13:48;;;;;;;8.52;6.07;;;;;;;;;;4982263;28;20424;-58
2023/07/09 04:16:15;;;;;;;11.63;6.20;;;;;;;;;;4985577;28;21010;-61
2023/07/09 04:18:41;;;;;;;9.10;5.80;;;;;;;;;;4987772;28;20430;-58
2023/07/09 04:21:09;;;;;;;8.93;5.88;;;;;;;;;;4985370;28;20486;-61
2023/07/09 04:23:36;;;;;;;9.95;5.97;;;;;;;;;;4985210;28;20414;-61
2023/07/09 04:26:04;;;;;;;10.75;5.93;;;;;;;;;;4990788;28;20418;-61
2023/07/09 04:28:31;;;;;;;9.15;6.05;;;;;;;;;;4984237;28;20435;-61
2023/07/09 04:30:59;;;;;;;10.73;6.10;;;;;;;;;;4985207;28;20447;-61
2023/07/09 04:33:26;;;;;;;9.93;5.93;;;;;;;;;;4984195;28;20415;-60
2023/07/09 04:35:53;;;;;;;10.43;5.82;;;;;;;;;;4982514;28;20448;-61
2023/07/09 04:38:20;;;;;;;7.55;5.82;;;;;;;;;;4984584;28;20460;-62
2023/07/09 04:40:48;;;;;;;10.00;5.93;;;;;;;;;;4984137;28;20521;-62
2023/07/09 04:43:15;;;;;;;7.90;5.95;;;;;;;;;;4981882;28;20420;-62
2023/07/09 04:45:42;;;;;;;8.20;5.63;;;;;;;;;;4988982;28;20422;-62
2023/07/09 04:48:10;;;;;;;8.30;5.80;;;;;;;;;;4984938;28;20987;-61
2023/07/09 04:50:37;;;;;;;11.88;6.13;;;;;;;;;;4990789;28;20418;-61
2023/07/09 04:53:04;;;;;;;9.43;6.37;;;;;;;;;;4982121;28;20467;-61
2023/07/09 04:55:31;;;;;;;9.07;6.05;;;;;;;;;;4990290;28;20442;-61
2023/07/09 04:57:59;;;;;;;9.90;5.78;;;;;;;;;;4982192;28;20482;-61
2023/07/09 05:00:25;;;;;;;10.33;6.17;;;;;;;;;;4984696;28;20422;-61
2023/07/09 05:02:53;;;;;;;8.48;5.80;;;;;;;;;;4983403;28;20420;-61
2023/07/09 05:05:21;;;;;;;9.27;5.75;;;;;;;;;;4979203;28;20830;-61
2023/07/09 05:07:48;;;;;;;10.30;6.03;;;;;;;;;;4982014;28;20412;-61
2023/07/09 05:10:16;;;;;;;9.00;5.97;;;;;;;;;;4982602;28;20428;-61
2023/07/09 05:12:50;;;;;;;9.40;6.18;;;;;;;;;;4982041;28;20455;-63
2023/07/09 05:15:17;;;;;;;9.82;5.80;;;;;;;;;;4981673;28;20510;-63
2023/07/09 05:17:44;;;;;;;8.63;6.13;;;;;;;;;;4984057;28;20489;-62
2023/07/09 05:20:11;;;;;;;10.60;5.82;;;;;;;;;;4979709;28;20452;-63
2023/07/09 05:22:39;;;;;;;11.30;6.00;;;;;;;;;;4985017;28;20436;-63
2023/07/09 05:25:06;;;;;;;7.85;5.78;;;;;;;;;;4986193;28;20428;-61
2023/07/09 05:27:34;;;;;;;9.87;6.30;;;;;;;;;;4984891;28;20422;-61
2023/07/09 05:30:01;;;;;;;10.20;6.10;;;;;;;;;;4982457;28;20423;-61
2023/07/09 05:32:28;;;;;;;9.98;5.90;;;;;;;;;;4981933;28;20432;-62
2023/07/09 05:34:55;;;;;;;9.88;5.72;;;;;;;;;;4983157;28;20471;-61
2023/07/09 05:37:22;;;;;;;8.30;5.90;;;;;;;;;;4982033;28;20809;-62
2023/07/09 05:39:50;;;;;;;8.88;5.85;;;;;;;;;;4984234;28;20441;-62
2023/07/09 05:42:17;;;;;;;10.77;5.45;;;;;;;;;;4979777;28;20473;-61
2023/07/09 05:44:44;;;;;;;10.27;6.20;;;;;;;;;;4983998;28;20501;-60
2023/07/09 05:47:12;;;;;;;8.82;5.95;;;;;;;;;;4983668;28;20489;-61
2023/07/09 05:49:39;;;;;;;8.70;5.75;;;;;;;;;;4983667;28;20422;-61
2023/07/09 05:52:07;;;;;;;10.10;6.45;;;;;;;;;;4981247;28;20853;-62
2023/07/09 05:54:34;;;;;;;9.70;5.85;;;;;;;;;;4986830;28;20461;-62
2023/07/09 05:57:02;;;;;;;10.88;6.03;;;;;;;;;;4984223;28;20485;-62
2023/07/09 05:59:29;;;;;;;11.95;5.90;;;;;;;;;;4982032;28;20985;-61
2023/07/09 06:01:57;;;;;;;13.35;6.32;;;;;;;;;;4980547;28;20542;-61
2023/07/09 06:04:25;;;;;;;9.55;6.40;;;;;;;;;;4982137;28;20426;-61
2023/07/09 06:06:52;;;;;;;9.52;5.57;;;;;;;;;;4983011;28;20517;-55
2023/07/09 06:09:19;;;;;;;9.00;5.97;;;;;;;;;;4979816;28;20550;-57
2023/07/09 06:11:46;;;;;;;10.00;6.05;;;;;;;;;;4980419;28;20961;-57
2023/07/09 06:14:16;;;;;;;9.80;6.10;;;;;;;;;;4983584;28;20416;-58
2023/07/09 06:16:44;;;;;;;6.35;5.50;;;;;;;;;;4979317;28;20504;-57
2023/07/09 06:19:11;;;;;;;9.40;5.70;;;;;;;;;;4982674;28;20528;-56
2023/07/09 06:21:38;;;;;;;9.38;5.90;;;;;;;;;;4981858;28;20414;-60
2023/07/09 06:24:06;;;;;;;9.03;5.83;;;;;;;;;;4983437;28;20831;-58
2023/07/09 06:26:33;;;;;;;7.90;5.53;;;;;;;;;;4985488;28;20422;-56
2023/07/09 06:29:00;;;;;;;7.53;5.35;;;;;;;;;;4983021;28;20485;-59
2023/07/09 06:31:28;;;;;;;9.63;5.53;;;;;;;;;;4981525;28;20438;-55
2023/07/09 06:33:55;;;;;;;8.80;5.60;;;;;;;;;;4986151;28;20426;-57
2023/07/09 06:36:22;;;;;;;9.45;5.60;;;;;;;;;;4981491;28;21117;-61
2023/07/09 06:38:49;;;;;;;14.35;6.78;;;;;;;;;;4980384;28;20432;-60
2023/07/09 06:41:16;;;;;;;11.10;7.78;;;;;;;;;;4980390;28;20479;-60
2023/07/09 06:43:43;;;;;;;9.07;6.20;;;;;;;;;;4981521;28;20920;-58
2023/07/09 06:46:12;;;;;;;8.63;5.60;;;;;;;;;;4981239;28;20431;-60
2023/07/09 06:48:40;;;;;;;7.68;5.53;;;;;;;;;;4979954;28;20412;-59
2023/07/09 06:51:07;;;;;;;8.68;5.35;;;;;;;;;;4980858;28;20442;-57
2023/07/09 06:53:34;;;;;;;8.15;5.50;;;;;;;;;;4981939;28;20473;-63
2023/07/09 06:56:01;;;;;;;9.15;6.07;;;;;;;;;;4986224;28;20414;-62
2023/07/09 06:58:31;;;;;;;6.72;5.47;;;;;;;;;;4983691;28;20523;-62
2023/07/09 07:00:58;;;;;;;9.07;5.72;;;;;;;;;;4979275;28;20547;-68
2023/07/09 07:03:25;;;;;;;8.13;5.72;;;;;;;;;;4980503;28;20472;-63
2023/07/09 07:05:54;;;;;;;8.27;5.67;;;;;;;;;;4982262;28;20509;-62
2023/07/09 07:08:22;;;;;;;10.80;5.80;;;;;;;;;;4980883;28;20507;-64
2023/07/09 07:10:50;;;;;;;9.43;5.50;;;;;;;;;;4981626;28;20418;-57
2023/07/09 07:13:17;;;;;;;9.18;5.80;;;;;;;;;;4979686;28;20844;-60
2023/07/09 07:15:46;;;;;;;8.75;5.80;;;;;;;;;;4985654;28;20895;-60
2023/07/09 07:18:13;;;;;;;9.23;6.45;;;;;;;;;;4980785;28;20435;-63
2023/07/09 07:20:40;;;;;;;9.02;6.05;;;;;;;;;;4979938;28;20424;-62
2023/07/09 07:23:08;;;;;;;9.63;5.80;;;;;;;;;;4981529;28;20497;-63
2023/07/09 07:25:35;;;;;;;8.80;5.80;;;;;;;;;;4987775;28;20425;-62
2023/07/09 07:28:02;;;;;;;11.43;5.93;;;;;;;;;;4980831;28;20467;-62
2023/07/09 07:30:30;;;;;;;10.50;6.20;;;;;;;;;;4981936;28;20430;-63
2023/07/09 07:32:57;;;;;;;9.93;5.90;;;;;;;;;;4982837;28;20434;-65
2023/07/09 07:35:24;;;;;;;10.30;6.20;;;;;;;;;;4979044;28;20419;-63
2023/07/09 07:37:51;;;;;;;8.93;6.23;;;;;;;;;;4980899;28;20470;-65
2023/07/09 07:40:19;;;;;;;9.27;6.10;;;;;;;;;;4982871;28;20523;-65
2023/07/09 07:42:46;;;;;;;9.07;5.72;;;;;;;;;;4979860;28;20459;-63
2023/07/09 07:45:14;;;;;;;11.68;6.47;;;;;;;;;;4982199;28;20422;-63
2023/07/09 07:47:41;;;;;;;10.20;5.90;;;;;;;;;;4982515;28;20505;-62
2023/07/09 07:50:08;;;;;;;12.05;5.93;;;;;;;;;;4985138;28;20410;-62
2023/07/09 07:52:37;;;;;;;;;;;;;;;;;;4983902;28;20389;-62
2023/07/09 07:55:04;;;;;;;;;;;;;;;;;;4988991;28;20029;-63
2023/07/09 07:57:30;;;;;;;;;;;;;;;;;;4987196;28;19921;-64
2023/07/09 07:59:57;;;;;;;;;;;;;;;;;;4982374;28;19922;-63
2023/07/09 08:02:24;;;;;;;;;;;;;;;;;;4985974;28;20397;-64
2023/07/09 08:04:51;;;;;;;;;;;;;;;;;;4984070;28;19928;-64
2023/07/09 08:07:18;;;;;;;;;;;;;;;;;;4985603;28;19922;-64
2023/07/09 08:09:46;;;;;;;;;;;;;;;;;;4986559;28;20374;-63
2023/07/09 08:12:13;;;;;;;;;;;;;;;;;;4986245;28;20017;-62
2023/07/09 08:14:39;;;;;;;;;;;;;;;;;;4989646;28;20417;-63
2023/07/09 08:17:06;;;;;;;;;;;;;;;;;;4986620;28;19969;-63
2023/07/09 08:19:33;;;;;;;;;;;;;;;;;;4985649;28;19981;-63
2023/07/09 08:22:00;;;;;;;;;;;;;;;;;;4983527;28;19962;-63
2023/07/09 08:24:27;;;;;;;;;;;;;;;;;;4991220;28;19980;-62
2023/07/09 08:26:54;;;;;;;;;;;;;;;;;;4988020;28;19929;-61
2023/07/09 08:29:21;;;;;;;;;;;;;;;;;;4983808;28;19922;-61
2023/07/09 08:31:49;;;;;;;11.88;6.50;;;;;;;;;;4985166;28;20476;-64
2023/07/09 08:34:16;;;;;;;;;;;;;;;;;;4984053;28;20125;-64
2023/07/09 08:36:44;;;;;;;9.18;6.60;;;;;;;;;;4983640;28;20507;-64
2023/07/09 08:39:11;;;;;;;10.05;5.68;;;;;;;;;;4983610;28;20224;-65
2023/07/09 08:41:40;;;;;;;12.40;5.28;;;;;;;;;;4983200;28;20216;-64
2023/07/09 08:44:25;;;;;;;8.63;5.93;;;;;;;;;;4983467;28;20280;-62
2023/07/09 08:47:00;;;;;;;7.72;5.35;;;;;;;;;;4985138;28;20215;-63
2023/07/09 08:49:31;;;;;;;7.63;6.05;;;;;;;;;;4984681;28;20286;-63
2023/07/09 08:51:59;;;;;;;10.73;5.90;;;;;;;;;;4982551;28;20681;-63
2023/07/09 08:54:29;;;;;;;9.82;5.28;;;;;;;;;;4985251;28;20235;-64
2023/07/09 08:56:57;;;;;;;11.75;5.78;;;;;;;;;;4982636;28;20212;-66
2023/07/09 08:59:25;;;;;;;9.13;5.03;;;;;;;;;;4986593;28;20282;-66
2023/07/09 09:01:55;;;;;;;8.90;5.60;;;;;;;;;;4989433;28;20278;-62
2023/07/09 09:04:25;;;;;;;6.90;5.43;;;;;;;;;;4985318;28;20274;-63
2023/07/09 09:06:58;;;;;;;10.68;5.82;;;;;;;;;;4987699;28;20212;-63
2023/07/09 09:09:29;;;;;;;6.18;4.75;;;;;;;;;;4983938;28;20215;-62
2023/07/09 09:12:01;;;;;;;11.25;5.60;;;;;;;;;;4982173;28;20281;-64
2023/07/09 09:14:29;;;;;;;11.18;5.40;;;;;;;;;;4982086;28;20274;-63
2023/07/09 09:16:57;;;;;;;12.00;5.70;;;;;;;;;;4987992;28;20212;-63
2023/07/09 09:19:28;;;;;;;8.00;4.95;;;;;;;;;;4984145;28;20224;-64
2023/07/09 09:21:58;;;;;;;8.32;5.10;;;;;;;;;;4984478;28;20208;-65
2023/07/09 09:24:28;;;;;;;8.25;6.15;;;;;;;;;;4989357;28;20242;-64
2023/07/09 09:26:57;;;;;;;6.65;5.18;;;;;;;;;;4985472;28;20624;-64
2023/07/09 09:29:25;;;;;;;9.43;5.05;;;;;;;;;;4985352;28;20211;-62
2023/07/09 09:31:55;;;;;;;9.07;5.60;;;;;;;;;;4981692;28;20216;-66
2023/07/09 09:34:23;;;;;;;9.23;5.30;;;;;;;;;;4982746;28;20287;-67
2023/07/09 09:36:51;;;;;;;7.78;5.13;;;;;;;;;;4985130;28;20243;-68
2023/07/09 09:39:19;;;;;;;7.47;4.82;;;;;;;;;;4984652;28;20639;-66
2023/07/09 09:41:46;;;;;;;8.05;5.13;;;;;;;;;;4987406;28;20204;-66
2023/07/09 09:44:19;;;;;;;9.93;5.75;;;;;;;;;;4982284;28;20728;-66
2023/07/09 09:46:47;;;;;;;8.25;5.03;;;;;;;;;;4981819;28;20724;-65
2023/07/09 09:49:14;;;;;;;7.07;4.97;;;;;;;;;;4982199;28;20212;-64
2023/07/09 09:51:42;;;;;;;7.82;5.20;;;;;;;;;;4984423;28;20560;-64
2023/07/09 09:54:15;;;;;;;13.30;5.32;;;;;;;;;;4985281;28;20228;-63
2023/07/09 09:56:43;;;;;;;8.13;4.88;;;;;;;;;;4984313;28;20204;-63
2023/07/09 09:59:18;;;;;;;9.55;4.63;;;;;;;;;;4982603;28;20324;-63
2023/07/09 10:01:45;;;;;;;8.70;4.82;;;;;;;;;;4981407;28;20224;-63
2023/07/09 10:04:16;;;;;;;9.23;4.88;;;;;;;;;;4982647;28;20688;-63
2023/07/09 10:06:45;;;;;;;7.90;5.05;;;;;;;;;;4983908;28;20265;-63
2023/07/09 10:09:18;;;;;;;8.60;4.70;;;;;;;;;;4982960;28;20251;-62
2023/07/09 10:11:47;;;;;;;6.45;5.00;;;;;;;;;;4978159;28;20220;-62
2023/07/09 10:14:21;;;;;;;7.53;5.40;;;;;;;;;;4982162;28;20429;-65
2023/07/09 10:16:50;;;;;;;10.55;4.88;;;;;;;;;;4980349;28;20216;-65
2023/07/09 10:19:24;;;;;;;6.88;4.07;;;;;;;;;;4983533;28;20599;-64
2023/07/09 10:21:57;;;;;;;8.43;4.50;;;;;;;;;;4981560;28;20240;-65
2023/07/09 10:24:33;;;;;;;6.45;4.15;;;;;;;;;;4983980;28;20236;-64
2023/07/09 10:27:00;;;;;;;;;;;;;;;;;;4982480;28;20125;-65
2023/07/09 10:29:27;;;;;;;;;;;;;;;;;;4982639;28;19926;-65
2023/07/09 10:31:54;;;;;;;;;;;;;;;;;;4979542;28;19929;-66
2023/07/09 10:34:21;;;;;;;;;;;;;;;;;;4983860;28;20092;-64
2023/07/09 10:36:48;;;;;;;;;;;;;;;;;;4982070;28;19964;-63
2023/07/09 10:39:15;;;;;;;;;;;;;;;;;;4980942;28;19922;-63
2023/07/09 10:41:44;;;;;;;4.97;3.83;;;;;;;;;;4980311;28;19921;-64
2023/07/09 10:44:15;;;;;;;7.40;3.80;;;;;;;;;;4979426;28;20885;-63
2023/07/09 10:46:43;;;;;;;7.47;4.00;;;;;;;;;;4981480;28;20543;-65
2023/07/09 10:49:12;;;;;;;5.75;3.70;;;;;;;;;;4981526;28;20461;-64
2023/07/09 10:51:41;;;;;;;7.28;4.13;;;;;;;;;;4970479;28;20424;-65
2023/07/09 10:54:12;;;;;;;6.47;3.80;;;;;;;;;;4975235;28;20504;-65
2023/07/09 10:56:40;;;;;;;5.43;3.50;;;;;;;;;;4979753;28;20456;-64
2023/07/09 10:59:22;;;;;;;7.83;4.10;;;;;;;;;;4983507;28;20418;-64
2023/07/09 11:01:51;;;;;;;8.40;3.93;;;;;;;;;;4986950;28;20433;-63
2023/07/09 11:04:22;;;;;;;6.93;3.92;;;;;;;;;;4978160;28;20422;-64
2023/07/09 11:06:50;;;;;;;6.20;3.60;;;;;;;;;;4981529;28;20422;-64
2023/07/09 11:09:23;;;;;;;6.63;4.03;;;;;;;;;;4979523;28;20420;-64
2023/07/09 11:11:52;;;;;;;5.90;3.78;;;;;;;;;;4980950;28;20425;-62
2023/07/09 11:14:27;;;;;;;6.60;4.07;;;;;;;;;;4970218;28;20478;-61
2023/07/09 11:16:55;;;;;;;7.43;4.60;;;;;;;;;;4970303;28;20503;-61
2023/07/09 11:19:23;;;;;;;6.10;3.80;;;;;;;;;;4973344;28;20483;-63
2023/07/09 11:22:01;;;;;;;6.35;3.70;;;;;;;;;;4978106;28;20431;-63
2023/07/09 11:24:36;;;;;;;8.57;4.05;;;;;;;;;;4983106;28;20506;-63
2023/07/09 11:27:03;;;;;;;5.57;3.80;;;;;;;;;;4982764;28;20753;-62
2023/07/09 11:29:33;;;;;;;5.95;3.97;;;;;;;;;;4978091;28;20474;-65
2023/07/09 11:32:09;;;;;;;5.15;3.88;;;;;;;;;;4984780;28;20908;-64
2023/07/09 11:34:45;;;;;;;7.10;4.05;;;;;;;;;;4982870;28;20425;-63
2023/07/09 11:37:13;;;;;;;6.55;3.92;;;;;;;;;;4984922;28;20439;-63
2023/07/09 11:39:45;;;;;;;7.20;3.97;;;;;;;;;;4981834;28;20490;-63
2023/07/09 11:42:25;;;;;;;5.97;3.80;;;;;;;;;;4981520;28;20420;-65
2023/07/09 11:44:55;;;;;;;6.47;3.70;;;;;;;;;;4981858;28;20420;-64
2023/07/09 11:47:24;;;;;;;6.00;4.03;;;;;;;;;;4984003;28;20428;-65
2023/07/09 11:49:54;;;;;;;5.63;3.80;;;;;;;;;;4982010;28;20465;-62
2023/07/09 11:52:23;;;;;;;6.05;4.10;;;;;;;;;;4981583;28;20464;-61
2023/07/09 11:54:51;;;;;;;7.47;4.10;;;;;;;;;;4984633;28;20429;-63
2023/07/09 11:57:19;;;;;;;8.60;4.10;;;;;;;;;;4982242;28;20424;-64
2023/07/09 11:59:46;;;;;;;6.10;3.90;;;;;;;;;;4979435;28;20442;-64
2023/07/09 12:02:17;;;;;;;7.82;4.10;;;;;;;;;;4979977;28;20459;-63
2023/07/09 12:04:45;;;;;;;6.23;3.97;;;;;;;;;;4980017;28;20991;-63
2023/07/09 12:07:16;;;;;;;7.15;4.38;;;;;;;;;;4973965;28;20432;-63
2023/07/09 12:09:49;;;;;;;7.40;4.00;;;;;;;;;;4979549;28;20461;-64
2023/07/09 12:12:20;;;;;;;6.78;4.20;;;;;;;;;;4980334;28;20471;-63
2023/07/09 12:14:47;;;;;;;6.10;4.00;;;;;;;;;;4979618;28;20468;-64
2023/07/09 12:17:14;;;;;;;6.47;4.10;;;;;;;;;;4978822;28;20431;-65
2023/07/09 12:19:42;;;;;;;5.53;3.92;;;;;;;;;;4981526;28;20431;-64
2023/07/09 12:22:20;;;;;;;6.57;4.05;;;;;;;;;;4977224;28;20484;-66
2023/07/09 12:24:49;;;;;;;6.03;4.00;;;;;;;;;;4982627;28;20422;-64
2023/07/09 12:27:20;;;;;;;7.63;4.30;;;;;;;;;;4979476;28;20833;-63
2023/07/09 12:29:47;;;;;;;5.45;3.88;;;;;;;;;;4983935;28;20430;-63
2023/07/09 12:32:16;;;;;;;7.10;4.00;;;;;;;;;;4980864;28;20475;-62
2023/07/09 12:34:48;;;;;;;6.28;3.70;;;;;;;;;;4979296;28;20447;-62
2023/07/09 12:37:16;;;;;;;6.93;4.20;;;;;;;;;;4981863;28;20424;-63
2023/07/09 12:39:43;;;;;;;6.05;3.70;;;;;;;;;;4982230;28;20475;-63
2023/07/09 12:42:15;;;;;;;6.75;3.63;;;;;;;;;;4982910;28;20430;-63
2023/07/09 12:44:42;;;;;;;6.05;4.00;;;;;;;;;;4980331;28;20793;-65
2023/07/09 12:47:13;;;;;;;6.03;4.18;;;;;;;;;;4981403;28;20426;-64
2023/07/09 12:49:42;;;;;;;4.90;3.60;;;;;;;;;;4985980;28;20527;-65
2023/07/09 12:52:13;;;;;;;6.95;3.72;;;;;;;;;;4986738;28;20520;-64
2023/07/09 12:54:40;;;;;;;5.45;3.70;;;;;;;;;;4989629;28;20513;-65
2023/07/09 12:57:15;;;;;;;8.10;4.10;;;;;;;;;;4982064;28;20817;-63
2023/07/09 12:59:43;;;;;;;5.25;3.60;;;;;;;;;;4982173;28;20512;-64
2023/07/09 13:02:15;;;;;;;7.25;4.25;;;;;;;;;;4980547;28;20547;-64
2023/07/09 13:04:42;;;;;;;8.57;4.20;;;;;;;;;;4985959;28;20990;-64
2023/07/09 13:07:26;;;;;;;6.80;3.83;;;;;;;;;;4983875;28;20422;-64
2023/07/09 13:09:54;;;;;;;4.90;3.90;;;;;;;;;;4983788;28;20418;-64
2023/07/09 13:12:22;;;;;;;5.88;3.85;;;;;;;;;;4982786;28;20430;-65
2023/07/09 13:14:54;;;;;;;7.20;4.10;;;;;;;;;;4980433;28;20427;-65
2023/07/09 13:17:22;;;;;;;7.13;4.10;;;;;;;;;;4981368;28;20420;-63
2023/07/09 13:19:49;;;;;;;8.13;4.07;;;;;;;;;;4982903;28;20480;-64
2023/07/09 13:22:17;;;;;;;7.07;4.38;;;;;;;;;;4982536;28;20424;-63
2023/07/09 13:24:46;;;;;;;6.63;3.70;;;;;;;;;;4986965;28;20726;-64
2023/07/09 13:27:21;;;;;;;6.82;4.32;;;;;;;;;;4982972;28;20434;-64
2023/07/09 13:29:48;;;;;;;5.63;4.35;;;;;;;;;;4981531;28;20895;-62
2023/07/09 13:32:16;;;;;;;6.95;4.25;;;;;;;;;;4982405;28;20418;-66
2023/07/09 13:34:44;;;;;;;6.93;4.30;;;;;;;;;;4983739;28;20434;-66
2023/07/09 13:37:11;;;;;;;;;;;;;;;;;;4981301;28;20055;-65
2023/07/09 13:39:37;;;;;;;;;;;;;;;;;;4987560;28;20351;-63
2023/07/09 13:42:04;;;;;;;;;;;;;;;;;;4984231;28;20511;-64
2023/07/09 13:44:33;;;;;;;7.60;4.13;;;;;;;;;;4981656;28;20429;-65
2023/07/09 13:47:00;;;;;;;8.77;4.78;;;;;;;;;;4986847;28;20207;-65
2023/07/09 13:49:28;;;;;;;7.00;3.75;;;;;;;;;;4982860;28;20278;-67
2023/07/09 13:51:57;;;;;;;5.88;4.03;;;;;;;;;;4980777;28;20657;-67
2023/07/09 13:54:25;;;;;;;8.95;4.38;;;;;;;;;;4985397;28;20286;-67
2023/07/09 13:56:52;;;;;;;6.15;4.00;;;;;;;;;;4986355;28;20207;-67
2023/07/09 13:59:21;;;;;;;6.47;3.90;;;;;;;;;;4982336;28;20320;-67
2023/07/09 14:01:50;;;;;;;7.68;4.07;;;;;;;;;;4987218;28;20232;-65
2023/07/09 14:04:17;;;;;;;6.45;4.10;;;;;;;;;;4983551;28;20374;-66
2023/07/09 14:06:46;;;;;;;5.10;3.65;;;;;;;;;;4984668;28;20347;-65
2023/07/09 14:09:13;;;;;;;9.43;4.40;;;;;;;;;;4983649;28;20216;-65
2023/07/09 14:11:42;;;;;;;6.90;4.32;;;;;;;;;;4981751;28;20212;-64
2023/07/09 14:14:17;;;;;;;8.00;4.68;;;;;;;;;;4983175;28;20350;-64
2023/07/09 14:16:44;;;;;;;5.68;4.20;;;;;;;;;;4983683;28;20192;-64
2023/07/09 14:19:15;;;;;;;6.43;4.38;;;;;;;;;;4989025;28;20209;-64
2023/07/09 14:21:42;;;;;;;7.28;4.28;;;;;;;;;;4983031;28;20231;-65
2023/07/09 14:24:18;;;;;;;7.38;4.25;;;;;;;;;;4983234;28;20271;-66
2023/07/09 14:26:45;;;;;;;8.45;5.10;;;;;;;;;;4988034;28;20558;-67
2023/07/09 14:29:12;;;;;;;;;;;;;;;;;;4981938;28;20106;-68
2023/07/09 14:31:38;;;;;;;;;;;;;;;;;;4982190;28;19925;-66
2023/07/09 14:34:06;;;;;;;;;;;;;;;;;;4987501;28;20060;-65
2023/07/09 14:36:33;;;;;;;;;;;;;;;;;;4983401;28;19977;-65
2023/07/09 14:39:00;;;;;;;;;;;;;;;;;;4982188;28;19980;-64
2023/07/09 14:41:27;;;;;;;;;;;;;;;;;;4982561;28;20342;-65
2023/07/09 14:43:53;;;;;;;;;;;;;;;;;;4983137;28;19922;-65
2023/07/09 14:46:20;;;;;;;;;;;;;;;;;;4981413;28;19930;-67
2023/07/09 14:48:47;;;;;;;;;;;;;;;;;;4982640;28;20328;-65
2023/07/09 14:51:14;;;;;;;;;;;;;;;;;;4984940;28;19926;-65
2023/07/09 14:53:41;;;;;;;;;;;;;;;;;;4984857;28;20503;-64
2023/07/09 14:56:08;;;;;;;;;;;;;;;;;;4986914;28;20047;-72
2023/07/09 14:58:35;;;;;;;;;;;;;;;;;;4983282;28;19922;-66
2023/07/09 15:01:02;;;;;;;;;;;;;;;;;;4982218;28;19926;-68